Time;durP1;ratioP1;P1;durP2;ratioP2;P2;SDS_P1;SDS_P2;PMS_P1;PMS_P2;Temp;Humidity;BMP_temperature;BMP_pressure;BME280_temperature;BME280_humidity;BME280_pressure;Samples;Min_cycle;Max_cycle;Signal;HPM_P1;HPM_P2
2022/11/16 00:01:04;;;;;;;12.73;6.85;;;10.50;99.90;;;;;;4955946;28;20046;-89
2022/11/16 00:03:32;;;;;;;12.93;7.00;;;11.10;99.90;;;;;;4954678;28;20562;-89
2022/11/16 00:05:59;;;;;;;13.18;7.35;;;10.50;99.90;;;;;;4959262;28;20104;-89
2022/11/16 00:08:25;;;;;;;15.27;7.82;;;10.90;99.90;;;;;;4985963;28;20062;-90
2022/11/16 00:10:51;;;;;;;13.73;7.93;;;10.50;99.90;;;;;;4974220;28;20030;-87
2022/11/16 00:13:18;;;;;;;14.00;7.75;;;10.50;99.90;;;;;;4973679;28;20035;-89
2022/11/16 00:15:53;;;;;;;15.35;7.70;;;10.50;99.90;;;;;;4957913;28;20049;-89
2022/11/16 00:18:18;;;;;;;15.88;7.93;;;10.50;99.90;;;;;;4973995;28;20050;-89
2022/11/16 00:20:44;;;;;;;14.48;7.53;;;12.10;99.90;;;;;;4934359;28;20047;-90
2022/11/16 00:23:10;;;;;;;14.32;7.97;;;10.90;99.90;;;;;;4973774;28;20046;-90
2022/11/16 00:25:36;;;;;;;14.70;7.50;;;10.60;99.90;;;;;;4941441;28;20170;-90
2022/11/16 00:28:01;;;;;;;13.98;7.93;;;10.50;99.90;;;;;;4942132;28;20047;-90
2022/11/16 00:30:27;;;;;;;14.30;7.93;;;10.50;99.90;;;;;;4922621;28;20043;-86
2022/11/16 00:32:53;;;;;;;15.32;8.07;;;11.70;99.90;;;;;;4957974;28;20031;-90
2022/11/16 00:35:18;;;;;;;14.65;7.60;;;10.60;99.90;;;;;;4942283;28;20102;-89
2022/11/16 00:37:44;;;;;;;14.30;8.35;;;;;;;;;;4944843;28;20388;-89
2022/11/16 00:40:11;;;;;;;12.40;7.88;;;10.50;99.90;;;;;;4957948;28;20101;-90
2022/11/16 00:42:36;;;;;;;14.43;7.40;;;10.60;99.90;;;;;;4941574;28;20499;-89
2022/11/16 00:45:02;;;;;;;12.48;7.72;;;10.50;99.90;;;;;;4909920;28;20078;-89
2022/11/16 00:47:28;;;;;;;12.45;7.43;;;10.50;99.90;;;;;;4945834;28;20035;-89
2022/11/16 00:49:54;;;;;;;14.55;7.95;;;12.20;99.90;;;;;;4956545;28;20042;-89
2022/11/16 00:52:19;;;;;;;12.35;7.65;;;10.50;99.90;;;;;;4957469;28;20158;-89
2022/11/16 00:54:45;;;;;;;12.88;7.53;;;10.50;99.90;;;;;;4925470;28;20042;-89
2022/11/16 00:57:11;;;;;;;14.27;8.15;;;10.50;99.90;;;;;;4957566;28;20225;-89
2022/11/16 00:59:36;;;;;;;13.20;8.18;;;10.50;99.90;;;;;;4954332;28;20082;-90
2022/11/16 01:02:02;;;;;;;14.70;8.52;;;11.60;99.90;;;;;;4956918;28;20042;-89
2022/11/16 01:04:28;;;;;;;16.58;9.68;;;11.60;99.90;;;;;;4957670;28;20105;-89
2022/11/16 01:06:53;;;;;;;15.45;9.15;;;10.50;99.90;;;;;;4957615;28;20480;-89
2022/11/16 01:09:19;;;;;;;17.50;9.05;;;10.90;99.90;;;;;;4925832;28;20042;-90
2022/11/16 01:14:29;;;;;;;16.80;9.75;;;10.60;99.90;;;;;;4959331;28;20475;-88
2022/11/16 01:16:55;;;;;;;16.77;10.18;;;11.80;99.90;;;;;;4958109;28;20166;-90
2022/11/16 01:19:20;;;;;;;16.52;9.93;;;10.70;99.90;;;;;;4976493;28;20038;-89
2022/11/16 01:21:46;;;;;;;16.45;10.45;;;11.10;99.90;;;;;;4960513;28;20293;-90
2022/11/16 01:24:12;;;;;;;18.45;10.80;;;10.60;99.90;;;;;;4940882;28;20031;-89
2022/11/16 01:26:37;;;;;;;17.63;11.10;;;10.50;99.90;;;;;;4957327;28;20054;-89
2022/11/16 01:29:03;;;;;;;18.17;10.90;;;11.30;99.90;;;;;;4971017;28;20046;-90
2022/11/16 01:31:29;;;;;;;18.92;11.50;;;11.00;99.90;;;;;;4960466;28;20413;-89
2022/11/16 01:33:54;;;;;;;19.80;10.80;;;10.70;99.90;;;;;;4960647;28;20048;-90
2022/11/16 01:36:20;;;;;;;14.98;10.13;;;11.40;99.90;;;;;;4944599;28;20177;-89
2022/11/16 01:38:46;;;;;;;17.20;10.93;;;10.60;99.90;;;;;;4944147;28;20045;-89
2022/11/16 01:41:14;;;;;;;17.40;10.40;;;10.60;99.90;;;;;;4969589;28;20057;-89
2022/11/16 01:44:04;;;;;;;17.88;11.02;;;10.90;99.90;;;;;;4960863;28;20034;-89
2022/11/16 01:46:30;;;;;;;17.33;11.32;;;10.70;99.90;;;;;;4975635;28;20046;-89
2022/11/16 01:49:13;;;;;;;19.38;10.85;;;10.70;99.90;;;;;;4976180;28;20030;-90
2022/11/16 01:51:42;;;;;;;16.67;10.80;;;11.00;99.90;;;;;;4976492;28;20078;-89
2022/11/16 01:54:12;;;;;;;16.23;9.98;;;10.70;99.90;;;;;;4976014;28;20030;-89
2022/11/16 01:56:40;;;;;;;18.75;10.75;;;10.70;99.90;;;;;;4976225;28;20046;-89
2022/11/16 01:59:06;;;;;;;18.33;11.25;;;10.90;99.90;;;;;;4975873;28;20043;-89
2022/11/16 02:01:31;;;;;;;17.05;11.02;;;10.70;99.90;;;;;;4960041;28;20116;-90
2022/11/16 02:03:57;;;;;;;18.75;11.00;;;10.70;99.90;;;;;;4944503;28;20491;-90
2022/11/16 02:06:22;;;;;;;17.83;12.50;;;10.80;99.90;;;;;;4942075;28;20431;-88
2022/11/16 02:12:05;;;;;;;22.13;12.25;;;10.80;99.90;;;;;;4960894;28;20131;-90
2022/11/16 02:14:55;;;;;;;20.83;12.68;;;10.80;99.90;;;;;;4969240;28;20046;-90
2022/11/16 02:17:45;;;;;;;19.25;12.02;;;10.80;99.90;;;;;;4956026;28;20125;-89
2022/11/16 02:20:38;;;;;;;18.65;11.77;;;10.80;99.90;;;;;;4954912;28;20391;-89
2022/11/16 02:23:35;;;;;;;20.08;12.82;;;10.80;99.90;;;;;;4973105;28;20519;-90
2022/11/16 02:26:12;;;;;;;21.45;12.30;;;10.80;99.90;;;;;;4969678;28;20129;-90
2022/11/16 02:28:41;;;;;;;16.55;10.98;;;10.80;99.90;;;;;;4956293;28;20043;-90
2022/11/16 02:31:12;;;;;;;16.40;10.70;;;10.80;99.90;;;;;;4956091;28;20031;-90
2022/11/16 02:33:41;;;;;;;17.80;11.68;;;10.80;99.90;;;;;;4972047;28;20100;-90
2022/11/16 02:36:11;;;;;;;18.38;11.57;;;10.80;99.90;;;;;;4955889;28;20061;-90
2022/11/16 02:38:46;;;;;;;17.83;10.55;;;11.20;99.90;;;;;;4955901;28;20049;-91
2022/11/16 02:41:17;;;;;;;19.08;11.27;;;10.80;99.90;;;;;;4952995;28;20191;-90
2022/11/16 02:43:47;;;;;;;20.20;12.10;;;11.20;99.90;;;;;;4957958;28;20039;-91
2022/11/16 02:46:20;;;;;;;17.70;11.63;;;10.80;99.90;;;;;;4969399;28;20052;-90
2022/11/16 02:48:50;;;;;;;20.23;12.30;;;10.80;99.90;;;;;;4954090;28;20555;-90
2022/11/16 02:51:17;;;;;;;18.20;12.57;;;10.80;99.90;;;;;;4972305;28;20035;-90
2022/11/16 02:54:03;;;;;;;18.50;12.02;;;10.80;99.90;;;;;;4955728;28;20034;-90
2022/11/16 02:56:29;;;;;;;20.33;11.68;;;10.80;99.90;;;;;;4957404;28;20046;-89
2022/11/16 02:58:57;;;;;;;18.85;10.93;;;10.90;99.90;;;;;;4955489;28;20053;-90
2022/11/16 03:01:34;;;;;;;17.13;10.75;;;10.90;99.90;;;;;;4972067;28;20042;-90
2022/11/16 03:04:15;;;;;;;18.48;10.38;;;10.80;99.90;;;;;;4955985;28;20051;-89
2022/11/16 03:06:42;;;;;;;16.55;9.57;;;11.20;99.90;;;;;;4955743;28;20121;-90
2022/11/16 03:09:14;;;;;;;17.75;9.27;;;10.80;99.90;;;;;;4939957;28;20046;-90
2022/11/16 03:11:59;;;;;;;15.93;10.18;;;10.80;99.90;;;;;;4946940;28;20168;-89
2022/11/16 03:14:43;;;;;;;16.48;9.82;;;10.80;99.90;;;;;;4951410;28;20489;-89
2022/11/16 03:17:19;;;;;;;14.02;8.57;;;10.80;99.90;;;;;;4971262;28;20565;-88
2022/11/16 03:19:57;;;;;;;15.07;8.50;;;10.80;99.90;;;;;;4955331;28;20043;-91
2022/11/16 03:22:42;;;;;;;15.65;9.20;;;10.70;99.90;;;;;;4966281;28;20035;-90
2022/11/16 03:25:11;;;;;;;15.65;9.30;;;10.80;99.90;;;;;;4971445;28;20051;-89
2022/11/16 03:27:43;;;;;;;16.45;9.90;;;10.80;99.90;;;;;;4939736;28;20306;-89
2022/11/16 03:30:19;;;;;;;15.35;9.30;;;11.40;99.90;;;;;;4971738;28;20034;-90
2022/11/16 03:32:55;;;;;;;17.10;9.60;;;10.80;99.90;;;;;;4972053;28;20038;-89
2022/11/16 03:35:29;;;;;;;15.38;9.00;;;10.70;99.90;;;;;;4952384;28;20047;-89
2022/11/16 03:37:58;;;;;;;16.65;10.00;;;10.80;99.90;;;;;;4952717;28;20419;-88
2022/11/16 03:40:29;;;;;;;18.52;10.40;;;10.70;99.90;;;;;;4947581;28;20122;-90
2022/11/16 03:42:56;;;;;;;17.83;11.07;;;11.70;99.90;;;;;;4971156;28;20038;-88
2022/11/16 03:45:22;;;;;;;18.15;10.95;;;11.30;99.90;;;;;;4971507;28;20046;-90
2022/11/16 03:47:48;;;;;;;17.45;10.60;;;11.40;99.90;;;;;;4955240;28;20400;-90
2022/11/16 03:50:14;;;;;;;17.73;10.20;;;11.00;99.90;;;;;;4943473;28;20087;-91
2022/11/16 03:52:40;;;;;;;17.15;11.25;;;10.70;99.90;;;;;;4952003;28;20043;-90
2022/11/16 03:55:06;;;;;;;18.13;11.18;;;11.40;99.90;;;;;;4955137;28;20050;-90
2022/11/16 03:57:32;;;;;;;17.25;11.35;;;10.70;99.90;;;;;;4970798;28;20053;-92
2022/11/16 03:59:57;;;;;;;17.35;10.88;;;11.80;99.90;;;;;;4954919;28;20046;-91
2022/11/16 04:02:23;;;;;;;19.98;11.98;;;10.70;99.90;;;;;;4936936;28;20078;-89
2022/11/16 04:24:19;;;;;;;15.07;8.63;;;10.70;99.90;;;;;;4966406;28;20094;-91
2022/11/16 04:29:33;;;;;;;13.52;7.82;;;11.20;99.90;;;;;;4952598;29;20054;-90
2022/11/16 04:40:12;;;;;;;16.00;8.18;;;11.20;99.90;;;;;;4938159;29;20518;-90
2022/11/16 04:42:38;;;;;;;15.85;8.82;;;10.60;99.90;;;;;;4937041;29;20416;-91
2022/11/16 04:47:49;;;;;;;16.48;8.82;;;10.60;99.90;;;;;;4957439;28;20024;-90
2022/11/16 04:50:16;;;;;;;14.05;8.75;;;10.60;99.90;;;;;;4967730;28;20031;-91
2022/11/16 04:52:41;;;;;;;15.80;9.30;;;10.60;99.90;;;;;;4950406;28;20046;-90
2022/11/16 04:55:07;;;;;;;16.77;9.05;;;10.60;99.90;;;;;;4965123;28;20027;-90
2022/11/16 04:57:33;;;;;;;15.98;9.93;;;10.60;99.90;;;;;;4964643;28;20047;-91
2022/11/16 04:59:59;;;;;;;17.73;9.90;;;11.30;99.90;;;;;;4964667;28;20063;-90
2022/11/16 05:02:24;;;;;;;16.23;9.95;;;10.60;99.90;;;;;;4964882;28;20042;-89
2022/11/16 05:04:50;;;;;;;17.55;9.43;;;10.60;99.90;;;;;;4961642;28;20099;-91
2022/11/16 05:07:16;;;;;;;15.07;9.27;;;11.50;99.90;;;;;;4956711;28;20039;-89
2022/11/16 05:09:44;;;;;;;18.70;10.05;;;11.70;99.90;;;;;;4948465;29;20047;-88
2022/11/16 05:12:13;;;;;;;16.92;10.20;;;10.60;99.90;;;;;;4980343;28;20063;-91
2022/11/16 05:14:40;;;;;;;18.65;9.60;;;10.60;99.90;;;;;;4980454;28;20035;-91
2022/11/16 05:17:06;;;;;;;16.88;10.15;;;11.50;99.90;;;;;;4948980;28;20059;-91
2022/11/16 05:22:16;;;;;;;16.42;10.15;;;10.60;99.90;;;;;;4966054;28;20055;-89
2022/11/16 05:24:41;;;;;;;16.80;9.82;;;10.60;99.90;;;;;;4938269;28;20507;-91
2022/11/16 05:27:10;;;;;;;15.40;9.93;;;10.60;99.90;;;;;;4960866;28;20053;-91
2022/11/16 05:29:37;;;;;;;15.50;9.35;;;11.20;99.90;;;;;;4954041;28;20042;-91
2022/11/16 05:32:03;;;;;;;15.98;9.68;;;10.60;99.90;;;;;;4960327;28;20030;-91
2022/11/16 05:34:29;;;;;;;16.75;9.95;;;10.60;99.90;;;;;;4936005;28;20045;-91
2022/11/16 05:36:55;;;;;;;16.48;10.27;;;10.60;99.90;;;;;;4957132;28;20039;-91
2022/11/16 05:39:22;;;;;;;15.90;10.00;;;10.60;99.90;;;;;;4986003;28;20213;-90
2022/11/16 05:41:47;;;;;;;16.65;10.07;;;10.60;99.90;;;;;;4976454;28;20049;-92
2022/11/16 05:44:14;;;;;;;17.45;10.60;;;10.60;99.90;;;;;;4929314;28;20117;-91
2022/11/16 05:46:40;;;;;;;19.00;10.52;;;10.60;99.90;;;;;;4970840;28;20122;-91
2022/11/16 05:49:06;;;;;;;16.40;9.93;;;10.90;99.90;;;;;;4952671;28;20105;-92
2022/11/16 05:51:33;;;;;;;17.23;10.65;;;10.60;99.90;;;;;;4953059;28;20042;-91
2022/11/16 05:53:59;;;;;;;16.38;10.10;;;10.60;99.90;;;;;;4960820;28;20518;-91
2022/11/16 05:56:25;;;;;;;16.80;9.50;;;11.20;99.90;;;;;;4941870;28;20407;-91
2022/11/16 05:58:51;;;;;;;16.13;10.00;;;10.60;99.90;;;;;;4941123;28;20042;-91
2022/11/16 06:01:16;;;;;;;15.90;9.20;;;11.10;99.90;;;;;;4971714;28;20045;-90
2022/11/16 06:03:42;;;;;;;15.25;9.82;;;10.70;99.90;;;;;;4938603;28;20034;-92
2022/11/16 06:06:08;;;;;;;17.55;10.65;;;10.80;99.90;;;;;;4960128;28;20097;-90
2022/11/16 06:08:33;;;;;;;17.35;10.70;;;10.60;99.90;;;;;;4977258;28;20502;-90
2022/11/16 06:11:07;;;;;;;17.15;10.30;;;10.60;99.90;;;;;;4949306;28;20026;-90
2022/11/16 06:13:33;;;;;;;16.60;10.25;;;10.60;99.90;;;;;;4956544;28;20034;-90
2022/11/16 06:15:59;;;;;;;16.30;10.05;;;10.60;99.90;;;;;;4971428;28;20045;-91
2022/11/16 06:18:25;;;;;;;16.17;10.13;;;10.60;99.90;;;;;;4976033;28;20046;-91
2022/11/16 06:20:51;;;;;;;16.63;10.80;;;10.60;99.90;;;;;;4974602;28;20038;-91
2022/11/16 06:23:17;;;;;;;18.08;11.30;;;11.30;99.90;;;;;;4959052;28;20046;-91
2022/11/16 06:25:43;;;;;;;18.52;11.60;;;10.70;99.90;;;;;;4972499;28;20066;-92
2022/11/16 06:28:09;;;;;;;18.63;10.95;;;10.60;99.90;;;;;;4975825;28;20043;-92
2022/11/16 06:30:37;;;;;;;18.83;11.95;;;10.60;99.90;;;;;;4957831;28;20039;-92
2022/11/16 06:33:03;;;;;;;18.30;11.82;;;10.60;99.90;;;;;;4959948;28;20491;-92
2022/11/16 06:35:29;;;;;;;19.50;11.68;;;10.60;99.90;;;;;;4958312;28;20042;-92
2022/11/16 06:37:56;;;;;;;18.05;10.80;;;10.80;99.90;;;;;;4944402;28;20039;-91
2022/11/16 06:40:21;;;;;;;17.77;11.30;;;10.60;99.90;;;;;;4975792;28;20042;-92
2022/11/16 06:42:47;;;;;;;19.20;11.52;;;10.60;99.90;;;;;;4960182;28;20046;-93
2022/11/16 06:45:12;;;;;;;16.77;11.38;;;10.60;99.90;;;;;;4975973;28;20038;-91
2022/11/16 06:47:38;;;;;;;17.20;11.15;;;10.60;99.90;;;;;;4960423;28;20042;-92
2022/11/16 06:50:04;;;;;;;18.30;11.52;;;10.60;99.90;;;;;;4944253;28;20042;-91
2022/11/16 06:52:30;;;;;;;18.17;11.68;;;10.60;99.90;;;;;;4960180;28;20180;-93
2022/11/16 06:54:56;;;;;;;20.02;12.95;;;10.60;99.90;;;;;;4976346;28;20042;-93
2022/11/16 06:57:22;;;;;;;18.65;12.10;;;10.60;99.90;;;;;;4959551;28;20042;-93
2022/11/16 06:59:47;;;;;;;19.45;11.98;;;11.30;99.90;;;;;;4959992;28;20046;-92
2022/11/16 07:02:13;;;;;;;18.02;11.95;;;10.60;99.90;;;;;;4976248;28;20053;-92
2022/11/16 07:04:39;;;;;;;17.25;11.48;;;10.60;99.90;;;;;;4987332;28;20102;-92
2022/11/16 07:07:04;;;;;;;17.55;12.15;;;10.60;99.90;;;;;;4932602;28;20038;-90
2022/11/16 07:09:30;;;;;;;19.27;12.07;;;10.60;99.90;;;;;;4953932;28;20505;-88
2022/11/16 07:11:56;;;;;;;22.70;12.85;;;10.60;99.90;;;;;;4941532;28;20034;-90
2022/11/16 07:14:22;;;;;;;19.50;12.57;;;;;;;;;;4939398;28;20038;-90
2022/11/16 07:16:47;;;;;;;19.20;12.38;;;10.60;99.90;;;;;;4954698;28;20124;-89
2022/11/16 07:19:13;;;;;;;19.17;11.73;;;10.60;99.90;;;;;;4971661;28;20567;-89
2022/11/16 07:21:39;;;;;;;20.50;12.50;;;10.60;99.90;;;;;;4956886;28;20594;-89
2022/11/16 07:24:05;;;;;;;23.33;12.45;;;10.70;99.90;;;;;;4973733;28;20492;-89
2022/11/16 07:26:34;;;;;;;18.35;11.77;;;10.60;99.90;;;;;;4957612;28;20058;-88
2022/11/16 07:29:00;;;;;;;19.42;12.38;;;10.80;99.90;;;;;;4956428;28;20030;-89
2022/11/16 07:31:27;;;;;;;19.15;12.45;;;10.60;99.90;;;;;;4956257;28;20038;-90
2022/11/16 07:33:53;;;;;;;17.63;11.05;;;10.70;99.90;;;;;;4949210;28;20038;-91
2022/11/16 07:36:19;;;;;;;17.88;11.30;;;10.70;99.90;;;;;;4952947;28;20126;-88
2022/11/16 07:38:45;;;;;;;18.38;11.05;;;10.70;99.90;;;;;;4940115;28;20121;-89
2022/11/16 07:41:16;;;;;;;18.08;10.95;;;11.50;99.90;;;;;;4955092;28;20038;-89
2022/11/16 07:43:42;;;;;;;17.58;10.90;;;11.50;99.90;;;;;;4957209;28;20069;-87
2022/11/16 07:46:12;;;;;;;16.88;10.85;;;10.60;99.90;;;;;;4941113;28;20078;-90
2022/11/16 07:48:38;;;;;;;16.77;10.35;;;10.70;99.90;;;;;;4973586;28;20068;-90
2022/11/16 07:51:06;;;;;;;17.75;10.43;;;10.60;99.90;;;;;;4940166;28;20541;-88
2022/11/16 07:53:32;;;;;;;15.98;9.90;;;10.70;99.90;;;;;;4972792;28;20585;-88
2022/11/16 07:55:58;;;;;;;13.65;8.68;;;10.60;99.90;;;;;;4954271;28;20046;-90
2022/11/16 07:58:25;;;;;;;15.68;9.05;;;10.60;99.90;;;;;;4973812;28;20069;-89
2022/11/16 08:00:51;;;;;;;17.20;9.45;;;11.60;99.90;;;;;;4971589;28;20121;-89
2022/11/16 08:03:17;;;;;;;15.45;8.85;;;10.70;99.90;;;;;;4956765;28;20130;-88
2022/11/16 08:05:46;;;;;;;14.90;8.98;;;10.60;99.90;;;;;;4954619;28;20073;-88
2022/11/16 08:08:12;;;;;;;14.50;9.18;;;10.60;99.90;;;;;;4956049;28;20128;-90
2022/11/16 08:10:38;;;;;;;17.02;9.93;;;10.70;99.90;;;;;;4956702;28;20038;-90
2022/11/16 08:13:04;;;;;;;14.60;9.50;;;10.70;99.90;;;;;;4941262;28;20128;-89
2022/11/16 08:15:30;;;;;;;16.88;10.07;;;11.30;99.90;;;;;;4940431;28;20053;-89
2022/11/16 08:17:58;;;;;;;17.98;10.18;;;10.70;99.90;;;;;;4929280;28;20529;-88
2022/11/16 08:20:24;;;;;;;20.08;11.07;;;11.80;99.90;;;;;;4956021;28;20047;-88
2022/11/16 08:22:50;;;;;;;18.02;11.02;;;10.80;99.90;;;;;;4922628;28;20069;-87
2022/11/16 08:25:16;;;;;;;17.92;11.38;;;10.70;99.90;;;;;;4940839;28;20418;-86
2022/11/16 08:27:42;;;;;;;17.85;11.15;;;10.70;99.90;;;;;;4976422;28;20100;-87
2022/11/16 08:30:08;;;;;;;18.38;11.98;;;10.70;99.90;;;;;;4960077;28;20042;-87
2022/11/16 08:32:35;;;;;;;17.48;11.50;;;10.70;99.90;;;;;;4944824;28;20173;-87
2022/11/16 08:35:01;;;;;;;18.27;12.05;;;10.70;99.90;;;;;;4942351;28;20050;-88
2022/11/16 08:37:27;;;;;;;19.75;11.82;;;10.70;99.90;;;;;;4960649;28;20046;-89
2022/11/16 08:39:55;;;;;;;19.52;12.10;;;10.70;99.90;;;;;;4943385;28;20042;-90
2022/11/16 08:42:21;;;;;;;16.95;11.40;;;10.70;99.90;;;;;;4943892;28;20042;-88
2022/11/16 08:44:47;;;;;;;18.75;11.40;;;10.70;99.90;;;;;;4974524;28;20130;-90
2022/11/16 08:47:12;;;;;;;18.52;11.38;;;10.70;99.90;;;;;;4957562;28;20046;-89
2022/11/16 08:49:38;;;;;;;19.15;11.38;;;10.70;99.90;;;;;;4943254;28;20089;-88
2022/11/16 08:52:04;;;;;;;17.10;10.18;;;10.70;99.90;;;;;;4926514;28;20117;-88
2022/11/16 08:54:29;;;;;;;17.65;11.48;;;10.70;99.90;;;;;;4957150;28;20042;-90
2022/11/16 08:56:55;;;;;;;18.45;11.40;;;11.50;99.90;;;;;;4943611;28;20046;-87
2022/11/16 08:59:21;;;;;;;16.52;9.82;;;10.70;99.90;;;;;;4972773;28;20275;-91
2022/11/16 09:01:48;;;;;;;19.23;11.77;;;10.70;99.90;;;;;;4958295;28;20069;-88
2022/11/16 09:04:14;;;;;;;16.30;11.30;;;10.70;99.90;;;;;;4938386;28;20038;-88
2022/11/16 09:06:40;;;;;;;18.20;11.68;;;10.70;99.90;;;;;;4921825;28;20039;-89
2022/11/16 09:09:06;;;;;;;18.15;10.32;;;10.70;99.90;;;;;;4928876;28;20496;-89
2022/11/16 09:11:32;;;;;;;15.63;10.00;;;10.70;99.90;;;;;;4971772;28;20477;-87
2022/11/16 09:13:58;;;;;;;15.02;9.93;;;10.70;99.90;;;;;;4941664;28;20042;-87
2022/11/16 09:16:25;;;;;;;15.77;9.60;;;10.80;99.90;;;;;;4939046;28;20049;-87
2022/11/16 09:18:51;;;;;;;15.50;9.45;;;11.80;99.90;;;;;;4975776;28;20105;-87
2022/11/16 09:21:22;;;;;;;16.40;10.50;;;10.70;99.90;;;;;;4959825;28;20089;-87
2022/11/16 09:23:48;;;;;;;17.45;10.02;;;10.80;99.90;;;;;;4956319;28;20041;-88
2022/11/16 09:26:15;;;;;;;16.55;9.98;;;;;;;;;;4972624;28;20535;-88
2022/11/16 09:28:41;;;;;;;14.63;9.32;;;10.80;99.90;;;;;;4942209;28;20042;-88
2022/11/16 09:31:08;;;;;;;17.42;10.18;;;10.80;99.90;;;;;;4957760;28;20069;-90
2022/11/16 09:33:35;;;;;;;18.58;10.98;;;10.90;99.90;;;;;;4957667;28;20046;-88
2022/11/16 09:36:05;;;;;;;17.15;10.80;;;10.90;99.90;;;;;;4975578;28;20049;-86
2022/11/16 09:38:32;;;;;;;18.70;11.65;;;10.90;99.90;;;;;;4957146;28;20034;-87
2022/11/16 09:40:57;;;;;;;16.23;10.52;;;11.00;99.90;;;;;;4952100;28;20038;-86
2022/11/16 09:43:46;;;;;;;17.05;11.27;;;10.90;99.90;;;;;;4941576;28;20046;-87
2022/11/16 09:46:33;;;;;;;17.20;10.52;;;11.00;99.90;;;;;;4969941;28;20407;-86
2022/11/16 09:49:03;;;;;;;17.73;10.88;;;11.00;99.90;;;;;;4968475;28;20041;-86
2022/11/16 09:51:33;;;;;;;16.48;10.88;;;11.00;99.90;;;;;;4952113;28;20043;-87
2022/11/16 09:54:06;;;;;;;17.83;11.38;;;11.00;99.90;;;;;;4969677;28;20053;-87
2022/11/16 09:56:36;;;;;;;16.05;10.95;;;11.00;99.90;;;;;;4984067;28;20046;-87
2022/11/16 09:59:06;;;;;;;18.20;12.02;;;11.00;99.90;;;;;;4969085;28;20466;-86
2022/11/16 10:01:41;;;;;;;17.50;11.82;;;11.10;99.90;;;;;;4966014;28;20042;-87
2022/11/16 10:04:20;;;;;;;17.23;11.55;;;11.10;99.90;;;;;;4955507;28;20125;-87
2022/11/16 10:06:57;;;;;;;18.52;12.45;;;11.20;99.90;;;;;;4969766;28;20039;-88
2022/11/16 10:09:24;;;;;;;18.50;12.85;;;11.20;99.90;;;;;;4956243;28;20061;-87
2022/11/16 10:11:50;;;;;;;19.80;13.10;;;11.30;99.90;;;;;;4961921;28;20030;-88
2022/11/16 10:15:03;;;;;;;19.55;13.23;;;11.40;99.90;;;;;;4951108;28;20422;-88
2022/11/16 10:17:54;;;;;;;17.83;12.63;;;11.50;99.90;;;;;;4946613;28;20057;-88
2022/11/16 10:20:40;;;;;;;20.52;13.57;;;11.50;99.90;;;;;;4951948;28;20042;-87
2022/11/16 10:23:12;;;;;;;20.17;14.18;;;11.50;99.90;;;;;;4969345;28;20583;-86
2022/11/16 10:25:42;;;;;;;19.58;13.85;;;11.50;99.90;;;;;;4969716;28;20414;-86
2022/11/16 10:28:27;;;;;;;20.40;14.80;;;11.60;99.90;;;;;;4974760;28;20420;-87
2022/11/16 10:31:13;;;;;;;20.38;14.68;;;11.60;99.90;;;;;;4957806;28;20042;-86
2022/11/16 10:33:42;;;;;;;22.52;15.38;;;11.60;99.90;;;;;;4966256;28;20038;-88
2022/11/16 10:36:14;;;;;;;21.38;15.55;;;11.60;99.90;;;;;;4951801;28;20042;-87
2022/11/16 10:38:41;;;;;;;21.88;15.82;;;11.60;99.90;;;;;;4954495;28;20053;-86
2022/11/16 10:41:23;;;;;;;21.40;15.52;;;11.60;99.90;;;;;;4941545;28;20125;-87
2022/11/16 10:43:48;;;;;;;22.27;16.70;;;11.70;99.90;;;;;;4963812;28;20124;-86
2022/11/16 10:46:20;;;;;;;20.73;15.38;;;11.70;99.90;;;;;;4955871;28;20491;-85
2022/11/16 10:49:06;;;;;;;19.83;14.95;;;12.30;99.90;;;;;;4959111;28;20495;-87
2022/11/16 10:51:32;;;;;;;22.27;14.90;;;11.70;99.90;;;;;;4973204;28;20500;-87
2022/11/16 10:53:58;;;;;;;21.73;14.95;;;12.20;99.90;;;;;;4942415;28;20041;-87
2022/11/16 10:56:28;;;;;;;20.27;15.07;;;11.70;99.90;;;;;;4955864;28;20523;-90
2022/11/16 10:58:58;;;;;;;18.98;14.27;;;11.70;99.90;;;;;;4971930;28;20034;-89
2022/11/16 11:01:40;;;;;;;20.42;15.32;;;11.70;99.90;;;;;;4949178;28;20073;-91
2022/11/16 11:04:13;;;;;;;19.27;13.77;;;11.80;99.90;;;;;;4955668;28;20352;-91
2022/11/16 11:06:39;;;;;;;20.25;13.38;;;11.90;99.90;;;;;;4973627;28;20050;-91
2022/11/16 11:09:27;;;;;;;17.83;13.55;;;12.20;99.90;;;;;;4974068;28;20096;-91
2022/11/16 11:15:01;;;;;;;20.80;13.13;;;12.10;99.90;;;;;;4972328;28;20100;-90
2022/11/16 11:17:28;;;;;;;18.83;12.68;;;12.10;99.90;;;;;;4973898;28;20042;-91
2022/11/16 11:20:26;;;;;;;22.13;12.60;;;13.00;99.90;;;;;;4929274;28;20402;-91
2022/11/16 11:22:58;;;;;;;16.25;11.48;;;12.20;99.90;;;;;;4898582;28;20061;-90
2022/11/16 11:25:48;;;;;;;18.27;11.93;;;12.20;99.90;;;;;;4950274;28;20615;-90
2022/11/16 11:28:52;;;;;;;21.88;12.35;;;12.20;99.90;;;;;;4950482;28;20054;-91
2022/11/16 11:31:24;;;;;;;19.05;11.80;;;12.30;99.90;;;;;;4916847;29;20349;-90
2022/11/16 11:33:54;;;;;;;18.60;10.73;;;12.40;99.90;;;;;;4930095;29;20126;-91
2022/11/16 11:36:45;;;;;;;18.48;10.75;;;12.40;99.90;;;;;;4950383;28;20301;-90
2022/11/16 11:39:11;;;;;;;17.45;10.40;;;12.30;99.90;;;;;;4951311;28;20097;-90
2022/11/16 11:41:42;;;;;;;16.67;10.02;;;12.30;99.90;;;;;;4969688;28;20439;-90
2022/11/16 11:44:17;;;;;;;19.15;9.43;;;12.20;99.90;;;;;;4967167;28;20466;-89
2022/11/16 11:47:01;;;;;;;16.73;10.05;;;12.20;99.90;;;;;;4954184;28;20205;-87
2022/11/16 11:49:51;;;;;;;15.13;9.25;;;12.20;99.90;;;;;;4968663;28;20147;-88
2022/11/16 11:52:36;;;;;;;15.00;9.27;;;12.10;99.90;;;;;;4970730;28;20428;-85
2022/11/16 11:55:04;;;;;;;19.20;8.60;;;12.10;99.90;;;;;;4983791;28;20056;-90
2022/11/16 11:57:33;;;;;;;18.15;8.68;;;12.00;99.90;;;;;;4966707;28;20129;-86
2022/11/16 12:00:02;;;;;;;13.52;8.18;;;12.10;99.90;;;;;;4937722;28;20049;-89
2022/11/16 12:02:49;;;;;;;20.08;9.13;;;12.10;99.90;;;;;;4938265;28;20407;-90
2022/11/16 12:05:34;;;;;;;16.88;8.45;;;12.10;99.90;;;;;;4947546;28;20058;-87
2022/11/16 12:08:26;;;;;;;17.92;7.85;;;12.40;99.90;;;;;;4951093;29;20039;-86
2022/11/16 12:10:58;;;;;;;14.98;7.82;;;12.10;99.90;;;;;;4968428;28;20066;-88
2022/11/16 12:13:24;;;;;;;16.15;7.00;;;12.20;99.90;;;;;;4952437;28;20047;-88
2022/11/16 12:16:11;;;;;;;14.23;7.05;;;12.20;99.90;;;;;;4968400;28;20089;-88
2022/11/16 12:18:51;;;;;;;14.82;7.28;;;12.30;99.90;;;;;;4953822;28;20047;-88
2022/11/16 12:21:38;;;;;;;16.20;7.05;;;12.30;99.90;;;;;;4970303;28;20078;-89
2022/11/16 12:24:22;;;;;;;14.52;6.47;;;12.40;99.90;;;;;;4950123;28;20084;-88
2022/11/16 12:27:34;;;;;;;14.35;6.90;;;12.50;99.90;;;;;;4964751;28;20051;-87
2022/11/16 12:30:17;;;;;;;14.73;5.15;;;12.50;99.90;;;;;;4940986;29;20066;-87
2022/11/16 12:32:58;;;;;;;13.90;5.22;;;12.60;99.90;;;;;;4951086;29;20094;-86
2022/11/16 12:35:32;;;;;;;11.90;4.90;;;12.70;99.90;;;;;;4949879;28;20042;-87
2022/11/16 12:38:16;;;;;;;11.68;4.53;;;12.80;99.90;;;;;;4960520;28;20400;-87
2022/11/16 12:41:02;;;;;;;13.30;4.60;;;12.90;99.90;;;;;;4970060;28;20050;-89
2022/11/16 12:44:00;;;;;;;10.80;4.38;;;13.00;99.90;;;;;;4969797;28;20126;-90
2022/11/16 12:46:29;;;;;;;13.73;4.10;;;13.10;99.90;;;;;;4952072;28;20105;-88
2022/11/16 12:49:32;;;;;;;10.70;3.90;;;13.30;99.90;;;;;;4954049;28;20372;-87
2022/11/16 12:52:23;;;;;;;11.15;3.63;;;13.30;99.90;;;;;;4953592;28;20472;-87
2022/11/16 12:55:19;;;;;;;11.57;3.35;;;13.30;99.90;;;;;;4968783;28;20472;-87
2022/11/16 12:58:00;;;;;;;10.68;3.33;;;13.40;99.90;;;;;;4967348;28;20039;-86
2022/11/16 13:00:30;;;;;;;9.50;2.83;;;13.40;99.90;;;;;;4969471;28;20331;-87
2022/11/16 13:03:17;;;;;;;11.57;3.40;;;13.40;99.90;;;;;;4953960;28;20163;-89
2022/11/16 13:06:03;;;;;;;9.13;2.90;;;13.40;99.90;;;;;;4968391;28;20468;-89
2022/11/16 13:08:58;;;;;;;13.38;3.22;;;13.40;99.90;;;;;;4952596;28;20403;-88
2022/11/16 13:11:50;;;;;;;9.75;2.70;;;13.40;99.90;;;;;;4969163;28;20104;-88
2022/11/16 13:14:19;;;;;;;8.40;2.53;;;13.30;99.90;;;;;;4967125;28;20181;-89
2022/11/16 13:16:46;;;;;;;9.20;2.47;;;13.30;99.90;;;;;;4972392;28;20058;-90
2022/11/16 13:19:15;;;;;;;12.48;3.00;;;13.30;99.90;;;;;;4956886;28;20043;-89
2022/11/16 13:21:53;;;;;;;9.98;2.60;;;13.30;99.90;;;;;;4956584;28;20053;-89
2022/11/16 13:24:31;;;;;;;10.35;2.60;;;13.60;99.90;;;;;;4972009;28;20121;-88
2022/11/16 13:27:15;;;;;;;11.52;3.05;;;13.30;99.90;;;;;;4971417;28;20046;-88
2022/11/16 13:29:51;;;;;;;10.27;2.80;;;13.30;99.90;;;;;;4955228;28;20122;-90
2022/11/16 13:32:23;;;;;;;12.60;3.30;;;13.30;99.90;;;;;;4945028;28;20038;-86
2022/11/16 13:34:49;;;;;;;11.57;2.97;;;13.20;99.90;;;;;;4970818;28;20079;-89
2022/11/16 13:37:36;;;;;;;9.90;2.63;;;13.20;99.90;;;;;;4957328;28;20399;-89